Time;durP1;ratioP1;P1;durP2;ratioP2;P2;SDS_P1;SDS_P2;PMS_P1;PMS_P2;Temp;Humidity;BMP_temperature;BMP_pressure;BME280_temperature;BME280_humidity;BME280_pressure;Samples;Min_cycle;Max_cycle;Signal;HPM_P1;HPM_P2
2021/09/07 00:01:53;;;;;;;6.20;5.60;;;23.10;58.10;;;;;;4948207;29;20943;-85
2021/09/07 00:04:28;;;;;;;5.83;5.23;;;23.10;58.10;;;;;;4952477;29;20441;-85
2021/09/07 00:06:55;;;;;;;6.50;5.90;;;23.10;58.10;;;;;;4952395;29;20421;-86
2021/09/07 00:09:35;;;;;;;7.00;6.37;;;23.10;58.10;;;;;;4968186;29;20414;-86
2021/09/07 00:12:01;;;;;;;5.90;5.40;;;23.20;58.20;;;;;;4968521;29;20418;-85
2021/09/07 00:14:33;;;;;;;6.10;5.27;;;23.10;58.10;;;;;;4952319;29;20410;-85
2021/09/07 00:17:00;;;;;;;5.90;5.40;;;23.20;58.20;;;;;;4967937;29;21160;-85
2021/09/07 00:19:31;;;;;;;6.53;5.83;;;23.10;58.10;;;;;;4952563;29;20414;-86
2021/09/07 00:22:00;;;;;;;5.83;5.20;;;23.20;58.20;;;;;;4968348;29;20442;-86
2021/09/07 00:25:02;;;;;;;5.60;5.10;;;23.10;58.10;;;;;;4968421;29;20422;-86
2021/09/07 00:27:38;;;;;;;6.90;6.20;;;23.20;58.70;;;;;;4952037;29;20438;-86
2021/09/07 00:30:04;;;;;;;6.00;5.50;;;23.20;58.20;;;;;;4952222;29;20445;-86
2021/09/07 00:32:41;;;;;;;5.53;5.03;;;23.20;58.20;;;;;;4969108;28;20407;-85
2021/09/07 00:35:24;;;;;;;5.90;5.40;;;23.10;58.10;;;;;;4970624;29;20394;-85
2021/09/07 00:38:07;;;;;;;6.03;5.43;;;23.10;58.10;;;;;;4956670;29;20600;-85
2021/09/07 00:40:35;;;;;;;6.87;6.17;;;23.10;58.10;;;;;;4953430;29;20414;-85
2021/09/07 00:43:30;;;;;;;5.73;5.23;;;23.10;58.10;;;;;;4954319;29;20589;-85
2021/09/07 00:49:29;;;;;;;5.77;5.27;;;23.10;58.10;;;;;;4969338;29;20433;-86
2021/09/07 00:51:59;;;;;;;6.33;5.70;;;23.10;58.20;;;;;;4954874;29;20415;-86
2021/09/07 00:54:46;;;;;;;5.93;5.43;;;23.10;58.10;;;;;;4951299;29;20441;-86
2021/09/07 01:03:51;;;;;;;4.83;4.43;;;23.10;58.10;;;;;;4968016;29;20378;-86
2021/09/07 01:06:38;;;;;;;5.73;5.20;;;23.10;58.20;;;;;;4935233;29;20497;-86
2021/09/07 01:09:06;;;;;;;6.90;4.73;;;23.10;58.10;;;;;;4951440;29;20422;-85
2021/09/07 01:11:43;;;;;;;5.43;4.93;;;23.10;58.20;;;;;;4967275;29;20421;-86
2021/09/07 01:14:18;;;;;;;5.40;4.90;;;23.10;58.10;;;;;;4937279;29;20421;-85
2021/09/07 01:16:50;;;;;;;6.17;5.60;;;23.10;58.20;;;;;;4950059;29;20497;-85
2021/09/07 01:19:25;;;;;;;4.80;4.40;;;23.10;58.10;;;;;;4947579;29;20539;-86
2021/09/07 01:22:14;;;;;;;4.73;4.33;;;23.10;58.10;;;;;;4961083;28;20434;-85
2021/09/07 01:24:43;;;;;;;5.90;5.20;;;23.10;58.10;;;;;;4950294;28;20442;-86
2021/09/07 01:27:13;;;;;;;5.57;5.07;;;23.10;58.10;;;;;;4950313;29;20422;-85
2021/09/07 01:30:14;;;;;;;5.63;5.03;;;23.10;58.10;;;;;;4967301;28;20624;-86
2021/09/07 01:32:40;;;;;;;5.60;4.90;;;23.10;58.10;;;;;;4924581;29;20502;-86
2021/09/07 01:35:09;;;;;;;5.67;5.17;;;23.10;58.10;;;;;;4932778;29;20407;-86
2021/09/07 01:37:43;;;;;;;5.47;5.03;;;23.10;58.10;;;;;;5004231;28;21049;-86
2021/09/07 01:40:21;;;;;;;5.10;4.60;;;23.10;58.00;;;;;;5032389;28;20444;-86
2021/09/07 01:46:10;;;;;;;5.80;5.20;;;23.20;58.10;;;;;;5047991;28;20977;-85
2021/09/07 01:48:46;;;;;;;;;;;;;;;;;;;;;
2021/09/07 01:51:31;;;;;;;;;;;;;;;;;;;;;
2021/09/07 01:57:16;;;;;;;4.67;4.27;;;23.20;58.00;;;;;;5041724;28;20480;-85
2021/09/07 01:59:42;;;;;;;5.17;4.70;;;23.20;58.00;;;;;;5033429;28;20414;-86
2021/09/07 02:02:08;;;;;;;4.67;4.27;;;23.20;58.00;;;;;;5033032;28;20399;-86
2021/09/07 02:04:34;;;;;;;5.73;5.17;;;23.20;57.90;;;;;;5032024;28;20426;-86
2021/09/07 02:07:00;;;;;;;5.00;4.03;;;23.20;57.90;;;;;;5032462;28;20434;-86
2021/09/07 02:09:33;;;;;;;5.80;5.27;;;23.20;57.90;;;;;;5049719;28;20577;-86
2021/09/07 02:11:59;;;;;;;4.93;4.43;;;23.30;58.00;;;;;;5032632;28;20180;-86
2021/09/07 02:21:58;;;;;;;5.60;5.10;;;23.30;58.00;;;;;;5047618;28;20374;-85
2021/09/07 02:24:24;;;;;;;5.00;4.53;;;23.20;57.90;;;;;;5028979;28;20425;-85
2021/09/07 02:26:50;;;;;;;5.37;4.87;;;23.20;58.00;;;;;;5047059;28;20395;-85
2021/09/07 02:29:16;;;;;;;5.77;5.20;;;23.20;58.00;;;;;;5047084;28;20191;-85
2021/09/07 02:31:42;;;;;;;5.40;4.77;;;23.20;57.90;;;;;;5045586;28;20191;-85
2021/09/07 02:34:07;;;;;;;5.13;4.63;;;23.30;58.00;;;;;;5046440;28;20590;-85
2021/09/07 02:36:33;;;;;;;4.90;4.50;;;23.30;58.00;;;;;;5046686;28;20410;-85
2021/09/07 02:39:02;;;;;;;5.10;4.60;;;23.30;58.00;;;;;;5045710;28;20184;-85
2021/09/07 02:44:50;;;;;;;4.93;4.53;;;23.30;57.90;;;;;;5046355;28;20422;-85
2021/09/07 02:47:16;;;;;;;4.73;4.30;;;23.30;58.00;;;;;;5046723;28;20414;-85
2021/09/07 02:49:42;;;;;;;5.03;4.53;;;23.30;58.00;;;;;;5046145;28;20251;-85
2021/09/07 02:52:08;;;;;;;4.83;4.40;;;23.30;58.00;;;;;;5045166;28;20186;-85
2021/09/07 02:54:33;;;;;;;5.30;4.80;;;23.30;57.90;;;;;;5028814;28;20480;-85
2021/09/07 02:56:59;;;;;;;5.30;4.80;;;23.30;57.90;;;;;;5046455;28;20280;-85
2021/09/07 02:59:25;;;;;;;5.43;4.93;;;23.30;57.90;;;;;;5044918;28;20190;-85
2021/09/07 03:01:51;;;;;;;5.37;4.83;;;23.30;57.90;;;;;;5044983;28;20184;-85
2021/09/07 03:04:19;;;;;;;4.77;4.37;;;23.30;57.90;;;;;;5045680;28;20172;-85
2021/09/07 03:06:48;;;;;;;5.10;4.60;;;23.30;57.90;;;;;;5045400;28;20176;-85
2021/09/07 03:09:14;;;;;;;4.70;4.30;;;23.30;57.90;;;;;;5044839;28;20445;-85
2021/09/07 03:11:40;;;;;;;7.03;4.70;;;23.30;57.90;;;;;;5045924;28;20472;-85
2021/09/07 03:14:07;;;;;;;5.70;4.43;;;23.30;57.90;;;;;;5045491;28;20766;-85
2021/09/07 03:19:41;;;;;;;5.97;4.63;;;23.30;57.80;;;;;;5051137;28;20398;-84
2021/09/07 03:22:10;;;;;;;4.50;4.10;;;23.40;57.90;;;;;;5048992;28;20963;-84
2021/09/07 03:24:39;;;;;;;4.87;4.47;;;23.30;57.90;;;;;;5050644;28;20421;-84
2021/09/07 03:27:07;;;;;;;4.93;4.47;;;23.30;57.90;;;;;;5050234;28;20501;-84
2021/09/07 03:29:34;;;;;;;4.20;3.83;;;23.30;57.80;;;;;;5049171;28;20433;-84
2021/09/07 03:32:04;;;;;;;4.93;4.53;;;23.30;57.80;;;;;;5049877;28;20419;-84
2021/09/07 03:34:29;;;;;;;5.40;4.90;;;23.30;57.80;;;;;;5049717;28;20497;-84
2021/09/07 03:36:55;;;;;;;4.90;4.50;;;23.30;57.90;;;;;;5049746;28;20979;-84
2021/09/07 03:39:21;;;;;;;5.00;4.60;;;23.30;57.80;;;;;;5050235;28;20174;-83
2021/09/07 03:41:47;;;;;;;5.37;4.40;;;23.30;57.80;;;;;;5049503;28;20423;-84
2021/09/07 03:44:13;;;;;;;4.50;3.73;;;23.30;57.80;;;;;;5048988;28;20436;-84
2021/09/07 03:46:39;;;;;;;4.97;4.47;;;23.30;57.80;;;;;;5049494;28;20172;-84
2021/09/07 03:49:17;;;;;;;4.67;4.27;;;23.30;57.80;;;;;;5048811;28;20411;-84
2021/09/07 03:51:43;;;;;;;4.60;4.10;;;23.30;58.10;;;;;;5032646;28;20525;-83
2021/09/07 03:54:11;;;;;;;5.10;4.60;;;23.30;57.80;;;;;;5032634;28;20430;-84
2021/09/07 03:56:37;;;;;;;5.20;4.70;;;23.40;57.90;;;;;;5032230;28;20171;-84
2021/09/07 03:59:04;;;;;;;4.60;4.20;;;23.30;57.80;;;;;;5048610;28;20900;-84
2021/09/07 04:01:30;;;;;;;4.70;4.30;;;23.30;57.90;;;;;;5048523;28;20176;-84
2021/09/07 04:03:56;;;;;;;4.87;4.43;;;23.30;57.80;;;;;;5048564;28;20437;-84
2021/09/07 04:06:21;;;;;;;4.00;3.67;;;23.40;57.90;;;;;;5031526;28;20493;-84
2021/09/07 04:08:49;;;;;;;4.63;4.23;;;23.30;57.90;;;;;;5049626;28;20187;-84
2021/09/07 04:11:15;;;;;;;4.23;3.87;;;23.40;57.90;;;;;;5047838;28;20437;-84
2021/09/07 04:13:43;;;;;;;4.60;4.20;;;23.30;57.80;;;;;;5048427;28;20411;-84
2021/09/07 04:16:09;;;;;;;4.40;4.00;;;23.30;57.80;;;;;;5048935;28;20453;-84
2021/09/07 04:18:38;;;;;;;4.30;3.90;;;23.40;57.90;;;;;;5047318;28;20457;-83
2021/09/07 04:21:05;;;;;;;5.40;4.90;;;23.40;57.90;;;;;;5031928;28;20411;-83
2021/09/07 04:23:34;;;;;;;4.47;4.07;;;23.30;57.90;;;;;;5031980;28;20413;-83
2021/09/07 04:26:00;;;;;;;4.60;4.20;;;23.40;57.90;;;;;;5049439;28;20407;-83
2021/09/07 04:28:29;;;;;;;4.50;4.10;;;23.30;57.90;;;;;;5048441;28;20435;-84
2021/09/07 04:30:57;;;;;;;3.67;3.37;;;23.30;57.90;;;;;;5031899;28;20429;-84
2021/09/07 04:33:24;;;;;;;4.67;4.27;;;23.30;57.90;;;;;;5048756;28;20414;-84
2021/09/07 04:35:53;;;;;;;3.90;3.60;;;23.30;57.90;;;;;;5048034;28;20450;-84
2021/09/07 04:38:21;;;;;;;4.33;3.93;;;23.30;57.90;;;;;;5031040;28;20465;-83
2021/09/07 04:40:50;;;;;;;4.80;4.40;;;23.40;57.90;;;;;;5047865;28;20445;-83
2021/09/07 04:43:23;;;;;;;4.23;3.87;;;23.40;57.90;;;;;;5047900;28;20486;-84
2021/09/07 04:45:53;;;;;;;4.27;3.73;;;23.40;57.80;;;;;;5047774;28;20407;-84
2021/09/07 04:48:19;;;;;;;5.07;4.67;;;23.40;57.80;;;;;;5048282;28;20426;-83
2021/09/07 04:50:45;;;;;;;5.10;4.60;;;23.40;57.80;;;;;;5032192;28;20415;-84
2021/09/07 04:53:12;;;;;;;4.50;4.10;;;23.40;57.80;;;;;;5048637;28;20171;-83
2021/09/07 04:55:43;;;;;;;4.37;3.97;;;23.40;57.80;;;;;;5048113;28;20897;-84
2021/09/07 04:58:15;;;;;;;5.23;4.73;;;23.40;57.80;;;;;;5048860;28;20572;-84
2021/09/07 05:00:43;;;;;;;4.67;4.27;;;23.40;57.70;;;;;;5031506;28;20809;-84
2021/09/07 05:03:19;;;;;;;4.37;3.97;;;23.40;57.70;;;;;;5046777;28;20450;-84
2021/09/07 05:05:48;;;;;;;4.27;3.87;;;23.40;57.70;;;;;;5045026;28;20437;-84
2021/09/07 05:08:23;;;;;;;4.00;3.70;;;23.40;57.70;;;;;;5048205;28;20426;-84
2021/09/07 05:10:55;;;;;;;5.00;4.60;;;23.40;57.70;;;;;;5047411;28;20425;-84
2021/09/07 05:13:21;;;;;;;4.23;3.70;;;23.40;57.70;;;;;;5031401;28;20422;-84
2021/09/07 05:15:47;;;;;;;4.00;3.60;;;23.40;57.70;;;;;;5047469;28;20920;-84
2021/09/07 05:18:58;;;;;;;4.53;4.10;;;23.40;57.70;;;;;;5048283;28;20196;-85
2021/09/07 05:21:23;;;;;;;4.40;3.90;;;23.40;57.60;;;;;;5030361;28;20410;-84
2021/09/07 05:23:57;;;;;;;3.73;3.43;;;23.40;57.60;;;;;;5047111;28;20421;-84
2021/09/07 05:26:23;;;;;;;4.10;3.70;;;23.40;57.60;;;;;;5048645;28;20171;-84
2021/09/07 05:28:51;;;;;;;4.10;3.70;;;23.40;57.60;;;;;;5030593;28;20498;-84
2021/09/07 05:31:21;;;;;;;3.60;3.30;;;23.40;57.60;;;;;;5047516;28;20442;-84
2021/09/07 05:33:47;;;;;;;3.97;3.67;;;23.50;57.70;;;;;;5047219;28;20414;-84
2021/09/07 05:36:16;;;;;;;4.10;3.70;;;23.50;57.60;;;;;;5047785;28;20415;-83
2021/09/07 05:38:42;;;;;;;4.20;3.90;;;23.50;57.60;;;;;;5047210;28;20466;-83
2021/09/07 05:41:08;;;;;;;4.47;3.70;;;23.50;57.60;;;;;;5048295;28;20446;-84
2021/09/07 05:43:34;;;;;;;4.17;3.60;;;23.50;57.50;;;;;;5031030;28;20410;-84
2021/09/07 05:46:10;;;;;;;4.37;4.00;;;23.50;57.60;;;;;;5030685;28;20419;-84
2021/09/07 05:48:48;;;;;;;;;;;;;;;;;;;;;
2021/09/07 06:01:37;;;;;;;4.40;4.00;;;23.50;57.60;;;;;;4949987;29;20383;-84
2021/09/07 06:04:03;;;;;;;3.83;3.53;;;23.50;57.60;;;;;;4949144;29;20415;-84
2021/09/07 06:07:19;;;;;;;4.20;3.70;;;23.50;57.60;;;;;;4953134;29;20442;-81
2021/09/07 06:13:52;;;;;;;4.00;3.60;;;23.50;57.60;;;;;;4935995;29;20530;-81
2021/09/07 06:16:21;;;;;;;4.30;3.90;;;23.50;57.60;;;;;;4929742;29;20410;-81
2021/09/07 06:19:12;;;;;;;3.50;3.20;;;23.50;57.60;;;;;;4933765;29;20475;-81
2021/09/07 06:21:53;;;;;;;4.00;3.70;;;23.50;57.60;;;;;;4934485;29;20430;-81
2021/09/07 06:25:03;;;;;;;4.07;3.67;;;23.50;57.60;;;;;;4935383;29;20452;-81
2021/09/07 07:27:45;;;;;;;;;;;;;;;;;;;;;
2021/09/07 07:57:19;;;;;;;4.87;4.47;;;23.60;57.50;;;;;;4909715;29;20385;-85
2021/09/07 07:59:48;;;;;;;5.27;4.60;;;23.60;57.50;;;;;;4910644;29;20429;-85
2021/09/07 08:19:31;;;;;;;6.20;5.27;;;23.70;57.80;;;;;;4893326;29;20415;-82
2021/09/07 08:22:14;;;;;;;4.70;4.30;;;23.70;57.90;;;;;;4937302;29;20404;-82
2021/09/07 08:25:14;;;;;;;5.90;5.30;;;23.80;57.90;;;;;;4903444;29;20481;-82
2021/09/07 08:41:44;;;;;;;5.23;4.70;;;23.90;57.90;;;;;;4878959;29;20401;-87
2021/09/07 08:44:44;;;;;;;5.57;4.97;;;23.90;57.90;;;;;;4895384;29;20456;-88
2021/09/07 08:53:54;;;;;;;;;;;;;;;;;;;;;
2021/09/07 08:56:25;;;;;;;4.60;4.20;;;24.00;57.90;;;;;;4918103;29;20921;-87
2021/09/07 09:02:22;;;;;;;4.70;4.30;;;24.10;57.90;;;;;;4842084;29;20424;-88
2021/09/07 09:12:26;;;;;;;;;;;;;;;;;;;;;
2021/09/07 09:15:08;;;;;;;5.00;4.50;;;24.10;57.90;;;;;;4932421;29;20418;-87
2021/09/07 09:17:52;;;;;;;;;;;;;;;;;;;;;
2021/09/07 10:02:07;;;;;;;5.53;4.53;;;24.20;58.00;;;;;;4965567;29;20441;-86
2021/09/07 10:08:38;;;;;;;5.00;4.50;;;24.30;58.10;;;;;;4964680;29;20405;-87
2021/09/07 10:59:56;;;;;;;5.13;4.63;;;24.30;57.90;;;;;;4911679;29;20479;-87
2021/09/07 11:14:04;;;;;;;;;;;;;;;;;;;;;
2021/09/07 11:38:24;;;;;;;6.87;5.97;;;24.20;57.90;;;;;;4785714;30;20482;-89
2021/09/07 12:17:47;;;;;;;9.03;7.20;;;24.20;57.90;;;;;;4840559;29;20509;-88
2021/09/07 12:24:30;;;;;;;;;;;;;;;;;;;;;
2021/09/07 12:41:21;;;;;;;8.97;7.50;;;24.20;57.90;;;;;;4887801;29;20418;-90
2021/09/07 13:01:46;;;;;;;8.97;8.07;;;24.20;58.00;;;;;;4728120;30;21037;-88
2021/09/07 13:14:32;;;;;;;10.00;7.37;;;24.20;58.00;;;;;;4836400;29;20413;-89
2021/09/07 13:48:39;;;;;;;;;;;;;;;;;;;;;
2021/09/07 14:19:15;;;;;;;10.60;8.90;;;24.20;58.00;;;;;;4863093;29;20489;-87
2021/09/07 14:21:46;;;;;;;9.03;7.37;;;24.20;58.00;;;;;;4856005;29;20442;-86
2021/09/07 14:24:48;;;;;;;8.37;7.20;;;24.20;58.00;;;;;;4846014;29;20467;-86
2021/09/07 14:35:23;;;;;;;8.10;7.30;;;24.20;58.00;;;;;;4860681;29;20391;-87
2021/09/07 14:42:02;;;;;;;7.57;6.70;;;24.20;58.10;;;;;;4787768;30;20844;-86
2021/09/07 14:48:19;;;;;;;10.90;7.33;;;24.30;58.20;;;;;;4788290;30;20406;-86
2021/09/07 14:51:08;;;;;;;9.97;7.40;;;24.20;58.10;;;;;;4794557;29;20506;-86
2021/09/07 15:00:20;;;;;;;8.93;7.27;;;24.30;58.20;;;;;;4804466;30;20398;-91
2021/09/07 15:02:55;;;;;;;10.53;7.83;;;24.20;58.10;;;;;;4803083;29;20418;-90
2021/09/07 15:05:30;;;;;;;12.23;7.60;;;24.30;58.20;;;;;;4903129;29;20243;-88
2021/09/07 15:08:31;;;;;;;9.40;8.30;;;24.30;58.20;;;;;;4928134;29;20933;-89
2021/09/07 15:11:18;;;;;;;7.80;7.00;;;24.30;58.10;;;;;;4934764;29;20418;-88
2021/09/07 15:14:42;;;;;;;;;;;;;;;;;;;;;
2021/09/07 15:17:20;;;;;;;8.30;7.43;;;24.30;58.10;;;;;;4988064;28;20500;-89
2021/09/07 15:20:08;;;;;;;8.13;7.13;;;24.30;58.10;;;;;;5014556;28;20445;-88
2021/09/07 15:23:13;;;;;;;;;;;;;;;;;;;;;
2021/09/07 15:35:54;;;;;;;8.03;7.13;;;24.30;58.00;;;;;;4988508;28;20432;-88
2021/09/07 15:38:36;;;;;;;8.50;7.13;;;24.20;58.00;;;;;;4972382;28;20924;-89
2021/09/07 15:41:56;;;;;;;8.67;7.23;;;24.30;58.00;;;;;;4972202;28;20543;-88
2021/09/07 15:54:42;;;;;;;8.57;6.80;;;24.30;58.00;;;;;;4949078;29;20415;-88
2021/09/07 16:07:14;;;;;;;7.00;6.30;;;24.20;58.00;;;;;;4929224;29;20415;-87
2021/09/07 16:09:54;;;;;;;8.57;7.23;;;24.20;58.00;;;;;;4917676;29;20417;-87
2021/09/07 16:12:29;;;;;;;10.07;6.90;;;24.20;58.00;;;;;;4927094;29;20484;-87
2021/09/07 16:15:19;;;;;;;7.37;6.60;;;24.20;58.00;;;;;;4937512;29;20470;-87
2021/09/07 16:21:50;;;;;;;8.13;6.73;;;24.30;57.90;;;;;;5031169;28;20414;-87
2021/09/07 16:24:23;;;;;;;7.53;6.73;;;24.30;58.00;;;;;;5020806;28;20503;-87
2021/09/07 16:27:00;;;;;;;7.80;6.90;;;24.20;57.90;;;;;;5022336;28;20515;-86
2021/09/07 16:32:39;;;;;;;7.43;6.03;;;24.30;58.00;;;;;;5020705;28;20428;-88
2021/09/07 16:38:32;;;;;;;6.93;6.23;;;24.30;57.90;;;;;;5023071;28;20492;-89
2021/09/07 16:41:10;;;;;;;6.80;6.00;;;24.20;57.90;;;;;;5021589;28;20415;-89
2021/09/07 16:43:40;;;;;;;7.40;6.53;;;24.20;57.90;;;;;;5006389;28;20766;-89
2021/09/07 16:46:29;;;;;;;;;;;;;;;;;;;;;
2021/09/07 16:48:58;;;;;;;8.83;7.37;;;24.30;57.90;;;;;;5022877;28;20483;-88
2021/09/07 16:51:28;;;;;;;9.73;6.67;;;24.30;57.90;;;;;;5021683;28;20407;-88
2021/09/07 17:04:00;;;;;;;8.53;7.10;;;24.30;57.90;;;;;;4982818;28;20435;-89
2021/09/07 17:06:34;;;;;;;8.67;6.60;;;24.20;57.90;;;;;;4967145;28;20417;-89
2021/09/07 17:09:09;;;;;;;7.37;6.67;;;24.20;57.90;;;;;;4984220;28;20401;-88
2021/09/07 17:15:24;;;;;;;7.03;6.40;;;24.20;57.90;;;;;;4988279;28;20392;-87
2021/09/07 17:17:53;;;;;;;6.90;6.20;;;24.20;57.90;;;;;;4971523;28;20918;-87
2021/09/07 17:20:36;;;;;;;7.23;5.87;;;24.20;57.90;;;;;;4971627;28;20433;-87
2021/09/07 17:23:46;;;;;;;11.03;7.00;;;24.20;57.90;;;;;;4971970;28;20457;-88
2021/09/07 17:26:38;;;;;;;8.10;6.57;;;24.20;57.90;;;;;;4986054;28;20437;-87
2021/09/07 17:36:17;;;;;;;6.53;5.93;;;24.20;57.90;;;;;;5012806;28;20403;-88
2021/09/07 17:42:15;;;;;;;6.97;6.27;;;24.20;58.00;;;;;;4967708;29;20402;-87
2021/09/07 17:44:51;;;;;;;6.00;5.40;;;24.20;58.00;;;;;;4951544;29;20440;-87
2021/09/07 17:47:29;;;;;;;7.00;6.10;;;24.20;58.00;;;;;;4967220;29;20433;-88
2021/09/07 17:50:04;;;;;;;6.43;5.83;;;24.20;58.00;;;;;;4966795;29;20562;-88
2021/09/07 17:56:34;;;;;;;6.57;5.87;;;24.20;57.90;;;;;;4872057;29;20451;-88
2021/09/07 17:59:21;;;;;;;8.03;5.87;;;24.20;58.00;;;;;;4910825;29;20474;-87
2021/09/07 18:01:55;;;;;;;6.60;5.90;;;24.20;58.00;;;;;;4966425;29;20472;-88
2021/09/07 18:11:41;;;;;;;6.20;5.60;;;24.20;58.00;;;;;;5026635;28;20382;-88
2021/09/07 18:17:50;;;;;;;8.27;7.10;;;24.10;58.00;;;;;;4967883;29;20485;-87
2021/09/07 18:20:36;;;;;;;6.83;6.13;;;24.10;58.00;;;;;;4952555;29;20454;-87
2021/09/07 18:33:15;;;;;;;6.77;6.07;;;24.10;58.00;;;;;;5005770;28;21122;-89
2021/09/07 18:35:50;;;;;;;6.97;5.97;;;24.10;58.20;;;;;;5006606;28;20506;-89
2021/09/07 18:52:31;;;;;;;6.83;6.13;;;24.10;58.10;;;;;;5001586;28;20391;-88
2021/09/07 19:05:20;;;;;;;6.53;5.77;;;24.10;58.20;;;;;;5018513;28;20392;-86
2021/09/07 19:12:12;;;;;;;;;;;;;;;;;;;;;
2021/09/07 23:08:24;;;;;;;5.10;4.43;;;24.00;58.40;;;;;;4952692;29;20419;-89
